Wilson, OK (73463)

8:50 PM CST on February 08, 2016 (GMT -0600)
Rural Lone Grove | | Change Station
CLOSE
Current Station
Personal Weather Station
Location: Wilson, OK
Elevation: 879 ft
Nearby Weather Stations

Elev 879 ft 34.16 °N, 97.31 °W | Updated 4 seconds ago

Clear
Clear
42.1 °F
Feels Like 42 °F
N
1.3
Wind Variable Wind from NNW
Gusts 2.5 mph

Today
High -- | Low -- °F
--% Chance of Precip.
Yesterday
High -- | Low -- °F
Precip. -- in
Pressure 30.27 in
Visibility 10.0 miles
Clouds Clear
Windchill 42 °F
Dew Point 8 °F
Humidity 24%
Rainfall 0.00 in
Snow Depth Not available.
7:21 AM 6:06 PM
New Moon, 0% visible
METAR K1F0 090235Z AUTO 34004KT 10SM CLR 07/M15 A3027 RMK AO2
Pressure 30.27 in
Visibility 10.0 miles
Clouds Clear
Windchill 42 °F
Dew Point 8 °F
Humidity 24%
Rainfall 0.00 in
Snow Depth Not available.
7:21 AM 6:06 PM
New Moon, 0% visible
METAR K1F0 090235Z AUTO 34004KT 10SM CLR 07/M15 A3027 RMK AO2

10-Day Weather Forecast

Almanac

Astronomy

Feb. 08, 2016 Rise Set
Actual Time
Civil Twilight
Nautical Twilight
Astronomical Twilight
Moon
Length of Visible Light
Length of Day
Tomorrow will be .
, % of the Moon is Illuminated

Today's Extremes

State Highs State Lows

Community

WunderPhotos

Upload Photos

1,891,527 photos uploaded!

WunderBlog® & News

Nearby

Air Quality

  Air Quality AQ Index Pollutant
Not available.

Snow Depth

Station Depth Elevation

Earthquake Activity

City Distance Mag. Time & Date
Minimum magnitude displayed is 2.5.

Coastal Water Temperatures

Place Temperature

Stations

Nearby Weather Stations

Station Location Temp. Windchill Dew Point Humidity Wind Precip. Elev Updated Type
                   

Watches & Warnings

There are currently no watches in effect.